Time;durP1;ratioP1;P1;durP2;ratioP2;P2;SDS_P1;SDS_P2;PMS_P1;PMS_P2;Temp;Humidity;BMP_temperature;BMP_pressure;BME280_temperature;BME280_humidity;BME280_pressure;Samples;Min_cycle;Max_cycle;Signal;HPM_P1;HPM_P2
2020/12/14 00:03:10;;;;;;;40.60;26.90;;;;;;;-144.15;0.00;65763.66;10238697;28;20388;-71
2020/12/14 00:08:08;;;;;;;38.97;22.83;;;;;;;-144.15;0.00;65763.66;10236005;28;20053;-71
2020/12/14 00:13:06;;;;;;;33.28;24.40;;;;;;;-144.15;0.00;65763.66;10237491;28;20054;-71
2020/12/14 00:18:04;;;;;;;43.75;28.48;;;;;;;-144.15;0.00;65763.66;10238245;28;20590;-71
2020/12/14 00:23:02;;;;;;;74.45;47.10;;;;;;;-144.15;0.00;65763.66;10237692;28;20042;-71
2020/12/14 00:28:00;;;;;;;76.25;42.92;;;;;;;-144.15;0.00;65763.66;10234119;28;20072;-70
2020/12/14 00:32:59;;;;;;;95.20;51.80;;;;;;;-144.15;0.00;65763.66;10237315;28;20045;-70
2020/12/14 00:37:56;;;;;;;41.67;24.83;;;;;;;-144.15;0.00;65763.66;10234661;28;20081;-70
2020/12/14 00:42:54;;;;;;;77.85;41.75;;;;;;;-144.15;0.00;65763.66;10232679;28;20077;-70
2020/12/14 00:47:52;;;;;;;91.70;59.67;;;;;;;-144.15;0.00;65763.66;10233067;28;20081;-70
2020/12/14 00:52:51;;;;;;;22.27;16.45;;;;;;;-144.15;0.00;65763.66;10234569;28;20080;-70
2020/12/14 00:57:48;;;;;;;74.43;47.00;;;;;;;-144.15;0.00;65763.66;10236539;28;20084;-70
2020/12/14 01:02:46;;;;;;;64.47;42.83;;;;;;;-144.15;0.00;65763.66;10236211;28;20041;-71
2020/12/14 01:07:44;;;;;;;31.95;21.35;;;;;;;-144.15;0.00;65763.66;10234236;28;20045;-69
2020/12/14 01:12:42;;;;;;;46.10;32.20;;;;;;;-144.15;0.00;65763.66;10235764;28;20537;-70
2020/12/14 01:17:40;;;;;;;32.80;24.05;;;;;;;-144.15;0.00;65763.66;10236066;28;20084;-70
2020/12/14 01:22:38;;;;;;;43.63;30.35;;;;;;;-144.15;0.00;65763.66;10235874;28;20057;-70
2020/12/14 01:27:36;;;;;;;30.33;23.35;;;;;;;-144.15;0.00;65763.66;10235478;28;20083;-71
2020/12/14 01:32:35;;;;;;;26.17;19.08;;;;;;;-144.15;0.00;65763.66;10235605;28;20058;-70
2020/12/14 01:37:33;;;;;;;24.45;18.15;;;;;;;-144.15;0.00;65763.66;10234513;28;20084;-70
2020/12/14 01:42:31;;;;;;;20.58;15.77;;;;;;;-144.15;0.00;65763.66;10235144;28;20041;-70
2020/12/14 01:47:30;;;;;;;15.07;12.00;;;;;;;-144.15;0.00;65763.66;10236155;28;20081;-71
2020/12/14 01:52:30;;;;;;;16.58;12.02;;;;;;;-144.15;0.00;65763.66;10243144;28;20056;-70
2020/12/14 01:57:28;;;;;;;17.35;12.23;;;;;;;-144.15;0.00;65763.66;10243125;28;20080;-70
2020/12/14 02:02:26;;;;;;;17.63;13.35;;;;;;;-144.15;0.00;65763.66;10243008;28;20053;-70
2020/12/14 02:07:25;;;;;;;16.75;12.63;;;;;;;-144.15;0.00;65763.66;10242696;28;20080;-71
2020/12/14 02:12:24;;;;;;;16.30;12.40;;;;;;;-144.15;0.00;65763.66;10242207;28;20061;-69
2020/12/14 02:17:23;;;;;;;17.38;12.75;;;;;;;-144.15;0.00;65763.66;10242404;28;20084;-71
2020/12/14 02:22:22;;;;;;;17.25;12.50;;;;;;;-144.15;0.00;65763.66;10242021;28;20073;-70
2020/12/14 02:27:21;;;;;;;17.50;13.77;;;;;;;-144.15;0.00;65763.66;10242078;28;20065;-71
2020/12/14 02:32:20;;;;;;;17.67;12.27;;;;;;;-144.15;0.00;65763.66;10240569;28;20052;-70
2020/12/14 02:37:20;;;;;;;22.92;15.43;;;;;;;-144.15;0.00;65763.66;10241594;28;20084;-70
2020/12/14 02:42:20;;;;;;;19.10;13.65;;;;;;;-144.15;0.00;65763.66;10241170;28;20076;-69
2020/12/14 02:47:19;;;;;;;16.27;11.30;;;;;;;-144.15;0.00;65763.66;10241140;28;20084;-69
2020/12/14 02:52:17;;;;;;;16.55;13.18;;;;;;;-144.15;0.00;65763.66;10240940;28;20046;-70
2020/12/14 02:57:14;;;;;;;15.70;12.27;;;;;;;-144.15;0.00;65763.66;10240845;28;20466;-70
2020/12/14 03:02:12;;;;;;;34.40;27.77;;;;;;;-144.15;0.00;65763.66;10240493;28;20419;-70
2020/12/14 03:07:11;;;;;;;18.27;14.48;;;;;;;-144.15;0.00;65763.66;10240248;28;20073;-71
2020/12/14 03:12:09;;;;;;;29.80;19.92;;;;;;;-144.15;0.00;65763.66;10240143;28;20077;-70
2020/12/14 03:17:06;;;;;;;32.95;23.50;;;;;;;-144.15;0.00;65763.66;10240419;28;20495;-70
2020/12/14 03:22:04;;;;;;;26.77;20.23;;;;;;;-144.15;0.00;65763.66;10239991;28;20049;-71
2020/12/14 03:27:03;;;;;;;42.97;33.72;;;;;;;-144.15;0.00;65763.66;10239753;28;20451;-71
2020/12/14 03:32:01;;;;;;;31.55;24.15;;;;;;;-144.15;0.00;65763.66;10239447;28;20084;-71
2020/12/14 03:36:59;;;;;;;27.48;20.80;;;;;;;-144.15;0.00;65763.66;10239044;28;20077;-71
2020/12/14 03:41:56;;;;;;;21.17;16.33;;;;;;;-144.15;0.00;65763.66;10238905;28;20045;-71
2020/12/14 03:46:55;;;;;;;23.35;17.73;;;;;;;-144.15;0.00;65763.66;10239142;28;20534;-71
2020/12/14 03:51:55;;;;;;;21.67;17.58;;;;;;;-144.15;0.00;65763.66;10238666;28;20050;-71
2020/12/14 03:56:56;;;;;;;30.08;22.30;;;;;;;-144.15;0.00;65763.66;10238596;28;20052;-71
2020/12/14 04:01:55;;;;;;;32.13;21.85;;;;;;;-144.15;0.00;65763.66;10237770;28;20041;-69
2020/12/14 04:06:55;;;;;;;33.95;21.42;;;;;;;-144.15;0.00;65763.66;10238113;28;20052;-70
2020/12/14 04:11:53;;;;;;;33.38;20.20;;;;;;;-144.15;0.00;65763.66;10237126;28;20056;-70
2020/12/14 04:16:52;;;;;;;34.40;22.92;;;;;;;-144.15;0.00;65763.66;10237711;28;20514;-71
2020/12/14 04:21:52;;;;;;;31.58;19.67;;;;;;;-144.15;0.00;65763.66;10237663;28;20046;-71
2020/12/14 04:26:53;;;;;;;40.53;26.48;;;;;;;-144.15;0.00;65763.66;10237067;28;20041;-68
2020/12/14 04:31:51;;;;;;;47.90;28.15;;;;;;;-144.15;0.00;65763.66;10236139;28;20041;-70
2020/12/14 04:36:51;;;;;;;37.45;23.83;;;;;;;-144.15;0.00;65763.66;10234833;28;20073;-70
2020/12/14 04:41:48;;;;;;;36.42;21.25;;;;;;;-144.15;0.00;65763.66;10236944;28;20054;-70
2020/12/14 04:46:49;;;;;;;31.92;20.60;;;;;;;-144.15;0.00;65763.66;10236510;28;20057;-70
2020/12/14 04:51:48;;;;;;;29.02;19.95;;;;;;;-144.15;0.00;65763.66;10236334;28;20101;-70
2020/12/14 04:56:49;;;;;;;30.23;19.63;;;;;;;-144.15;0.00;65763.66;10236101;28;20053;-70
2020/12/14 05:01:47;;;;;;;25.98;17.75;;;;;;;-144.15;0.00;65763.66;10236457;28;20490;-70
2020/12/14 05:06:50;;;;;;;30.30;20.42;;;;;;;-144.15;0.00;65763.66;10235406;28;20037;-70
2020/12/14 05:11:49;;;;;;;34.53;23.10;;;;;;;-144.15;0.00;65763.66;10235408;28;20060;-70
2020/12/14 05:16:47;;;;;;;41.25;26.70;;;;;;;-144.15;0.00;65763.66;10235552;28;20104;-70
2020/12/14 05:21:48;;;;;;;40.00;23.65;;;;;;;-144.15;0.00;65763.66;10234470;28;20076;-70
2020/12/14 05:26:47;;;;;;;53.10;32.05;;;;;;;-144.15;0.00;65763.66;10235495;28;20054;-70
2020/12/14 05:32:06;;;;;;;48.05;29.95;;;;;;;-144.15;0.00;65763.66;10235202;28;20084;-70
2020/12/14 05:37:07;;;;;;;44.92;28.60;;;;;;;-144.15;0.00;65763.66;10235064;28;20041;-70
2020/12/14 05:42:11;;;;;;;59.45;31.50;;;;;;;-144.15;0.00;65763.66;10235309;28;20107;-70
2020/12/14 05:47:28;;;;;;;71.35;38.65;;;;;;;-144.15;0.00;65763.66;10235644;28;20084;-70
2020/12/14 05:52:30;;;;;;;136.85;67.47;;;;;;;-144.15;0.00;65763.66;10235826;28;20049;-68
2020/12/14 05:57:33;;;;;;;52.20;35.58;;;;;;;-144.15;0.00;65763.66;10234787;28;20075;-70
2020/12/14 06:02:31;;;;;;;47.75;33.85;;;;;;;-144.15;0.00;65763.66;10235045;28;20088;-70
2020/12/14 06:07:31;;;;;;;69.95;42.33;;;;;;;-144.15;0.00;65763.66;10234628;28;20092;-69
2020/12/14 06:12:30;;;;;;;57.63;34.72;;;;;;;-144.15;0.00;65763.66;10234522;28;20495;-68
2020/12/14 06:17:28;;;;;;;38.80;26.00;;;;;;;-144.15;0.00;65763.66;10234482;28;20083;-70
2020/12/14 06:22:29;;;;;;;43.05;27.92;;;;;;;-144.15;0.00;65763.66;10234471;28;20081;-70
2020/12/14 06:27:28;;;;;;;40.28;27.02;;;;;;;-144.15;0.00;65763.66;10234137;28;20045;-71
2020/12/14 06:32:37;;;;;;;37.20;26.25;;;;;;;-144.15;0.00;65763.66;10234024;28;20056;-68
2020/12/14 06:37:53;;;;;;;66.13;41.08;;;;;;;-144.15;0.00;65763.66;10241039;28;20510;-69
2020/12/14 06:42:51;;;;;;;163.05;80.80;;;;;;;-144.15;0.00;65763.66;10241281;28;20108;-69
2020/12/14 06:47:51;;;;;;;221.60;107.45;;;;;;;-144.15;0.00;65763.66;10240588;28;20049;-69
2020/12/14 06:52:48;;;;;;;72.47;45.15;;;;;;;-144.15;0.00;65763.66;10241012;28;20053;-70
2020/12/14 06:57:48;;;;;;;51.83;38.03;;;;;;;-144.15;0.00;65763.66;10240649;28;20092;-69
2020/12/14 07:02:46;;;;;;;65.13;41.63;;;;;;;-144.15;0.00;65763.66;10239877;28;20072;-69
2020/12/14 07:07:52;;;;;;;96.97;55.28;;;;;;;-144.15;0.00;65763.66;10240601;28;20042;-70
2020/12/14 07:12:51;;;;;;;70.75;45.72;;;;;;;-144.15;0.00;65763.66;10240459;28;20061;-69
2020/12/14 07:18:07;;;;;;;50.45;32.85;;;;;;;-144.15;0.00;65763.66;10239124;28;20507;-70
2020/12/14 07:23:07;;;;;;;45.25;34.00;;;;;;;-144.15;0.00;65763.66;10240101;28;20503;-71
2020/12/14 07:28:05;;;;;;;58.10;37.50;;;;;;;-144.15;0.00;65763.66;10239948;28;20072;-71
2020/12/14 07:33:03;;;;;;;60.50;40.50;;;;;;;-144.15;0.00;65763.66;10239760;28;20073;-70
2020/12/14 07:38:01;;;;;;;59.85;41.85;;;;;;;-144.15;0.00;65763.66;10239246;28;20080;-70
2020/12/14 07:42:59;;;;;;;70.32;47.13;;;;;;;-144.15;0.00;65763.66;10239153;28;20045;-70
2020/12/14 07:47:57;;;;;;;48.22;34.47;;;;;;;-144.15;0.00;65763.66;10238076;28;20069;-71
2020/12/14 07:52:55;;;;;;;34.28;26.40;;;;;;;-144.15;0.00;65763.66;10238086;28;20083;-70
2020/12/14 07:57:55;;;;;;;40.50;28.60;;;;;;;-144.15;0.00;65763.66;10238632;28;20085;-70
2020/12/14 08:03:00;;;;;;;90.57;55.88;;;;;;;-144.15;0.00;65763.66;10238580;28;20164;-70
2020/12/14 08:08:02;;;;;;;67.15;46.20;;;;;;;-144.15;0.00;65763.66;10237357;28;20489;-70
2020/12/14 08:13:04;;;;;;;69.32;47.85;;;;;;;-144.15;0.00;65763.66;10237202;28;20480;-70
2020/12/14 08:18:05;;;;;;;65.88;44.65;;;;;;;-144.15;0.00;65763.66;10237523;28;20091;-70
2020/12/14 08:23:16;;;;;;;58.70;38.20;;;;;;;-144.15;0.00;65763.66;10234833;28;20438;-70
2020/12/14 08:28:16;;;;;;;93.82;60.83;;;;;;;-144.15;0.00;65763.66;10237490;28;20072;-70
2020/12/14 08:33:16;;;;;;;111.20;66.78;;;;;;;-144.15;0.00;65763.66;10237254;28;20037;-70
2020/12/14 08:38:16;;;;;;;96.60;55.72;;;;;;;-144.15;0.00;65763.66;10236899;28;20073;-70
2020/12/14 08:43:16;;;;;;;116.38;65.88;;;;;;;-144.15;0.00;65763.66;10236888;28;20041;-70
2020/12/14 08:48:14;;;;;;;161.32;90.10;;;;;;;-144.15;0.00;65763.66;10236886;28;20089;-70
2020/12/14 08:53:11;;;;;;;103.15;79.70;;;;;;;-144.15;0.00;65763.66;10236596;28;20076;-69
2020/12/14 08:58:10;;;;;;;80.53;56.25;;;;;;;-144.15;0.00;65763.66;10235556;28;20464;-70
2020/12/14 09:03:08;;;;;;;57.28;39.47;;;;;;;-144.15;0.00;65763.66;10236228;28;20041;-70
2020/12/14 09:08:14;;;;;;;69.60;45.75;;;;;;;-144.15;0.00;65763.66;10236196;28;20049;-71
2020/12/14 09:13:13;;;;;;;118.03;75.80;;;;;;;-144.15;0.00;65763.66;10235937;28;20430;-70
2020/12/14 09:18:10;;;;;;;81.05;54.53;;;;;;;-144.15;0.00;65763.66;10234970;28;20430;-71
2020/12/14 09:23:17;;;;;;;86.45;63.08;;;;;;;-144.15;0.00;65763.66;10235911;28;20065;-69
2020/12/14 09:28:16;;;;;;;81.32;56.80;;;;;;;-144.15;0.00;65763.66;10235769;28;20068;-68
2020/12/14 09:33:14;;;;;;;82.65;59.95;;;;;;;-144.15;0.00;65763.66;10235599;28;20065;-68
2020/12/14 09:38:12;;;;;;;85.15;57.45;;;;;;;-144.15;0.00;65763.66;10235329;28;20076;-68
2020/12/14 09:43:09;;;;;;;84.47;66.93;;;;;;;-144.15;0.00;65763.66;10235246;28;20410;-69
2020/12/14 09:48:08;;;;;;;103.03;81.75;;;;;;;-144.15;0.00;65763.66;10235037;28;20048;-69
2020/12/14 09:53:06;;;;;;;45.88;35.83;;;;;;;-144.15;0.00;65763.66;10234776;28;20517;-71
2020/12/14 09:58:04;;;;;;;29.98;22.40;;;;;;;-144.15;0.00;65763.66;10235005;28;20495;-69
2020/12/14 10:03:03;;;;;;;39.03;29.02;;;;;;;-144.15;0.00;65763.66;10234932;28;20037;-70
2020/12/14 10:08:07;;;;;;;38.15;26.80;;;;;;;-144.15;0.00;65763.66;10235513;28;20050;-70
2020/12/14 10:13:05;;;;;;;61.33;44.17;;;;;;;-144.15;0.00;65763.66;10242381;28;20068;-69
2020/12/14 10:18:03;;;;;;;46.15;30.55;;;;;;;-144.15;0.00;65763.66;10242828;28;20509;-70
2020/12/14 10:23:04;;;;;;;40.15;28.30;;;;;;;-144.15;0.00;65763.66;10242421;28;20430;-70
2020/12/14 10:28:02;;;;;;;63.55;46.40;;;;;;;-144.15;0.00;65763.66;10242143;28;20049;-70
2020/12/14 10:33:00;;;;;;;47.90;34.58;;;;;;;-144.15;0.00;65763.66;10241680;28;20065;-69
2020/12/14 10:37:58;;;;;;;61.83;40.95;;;;;;;-144.15;0.00;65763.66;10241849;28;20084;-70
2020/12/14 10:42:56;;;;;;;59.95;42.30;;;;;;;-144.15;0.00;65763.66;10241644;28;20565;-68
2020/12/14 10:47:55;;;;;;;59.25;41.10;;;;;;;-144.15;0.00;65763.66;10241384;28;20490;-68
2020/12/14 10:52:53;;;;;;;61.13;45.92;;;;;;;-144.15;0.00;65763.66;10240838;28;20057;-69
2020/12/14 10:57:51;;;;;;;32.95;23.92;;;;;;;-144.15;0.00;65763.66;10241123;28;20080;-69
2020/12/14 11:02:48;;;;;;;29.45;21.95;;;;;;;-144.15;0.00;65763.66;10238883;28;20085;-70
2020/12/14 11:07:48;;;;;;;68.55;38.53;;;;;;;-144.15;0.00;65763.66;10239432;28;20081;-69
2020/12/14 11:12:46;;;;;;;63.80;33.47;;;;;;;-144.15;0.00;65763.66;10239655;28;20100;-70
2020/12/14 11:17:44;;;;;;;45.38;27.75;;;;;;;-144.15;0.00;65763.66;10240475;28;20080;-69
2020/12/14 11:22:43;;;;;;;71.57;41.85;;;;;;;-144.15;0.00;65763.66;10239153;28;20077;-69
2020/12/14 11:27:42;;;;;;;99.00;60.45;;;;;;;-144.15;0.00;65763.66;10239796;28;20042;-69
2020/12/14 11:32:39;;;;;;;45.38;32.67;;;;;;;-144.15;0.00;65763.66;10239542;28;20057;-69
2020/12/14 11:37:37;;;;;;;80.32;57.47;;;;;;;-144.15;0.00;65763.66;10239412;28;20439;-69
2020/12/14 11:42:35;;;;;;;93.50;59.13;;;;;;;-144.15;0.00;65763.66;10239354;28;20514;-69
2020/12/14 11:47:33;;;;;;;57.28;38.13;;;;;;;-144.15;0.00;65763.66;10238888;28;20064;-69
2020/12/14 11:52:32;;;;;;;84.85;50.20;;;;;;;-144.15;0.00;65763.66;10237493;28;20103;-69
2020/12/14 11:57:30;;;;;;;155.85;79.32;;;;;;;-144.15;0.00;65763.66;10237323;28;20483;-68
2020/12/14 12:02:29;;;;;;;135.05;67.57;;;;;;;-144.15;0.00;65763.66;10237294;28;20073;-69
2020/12/14 12:07:28;;;;;;;150.70;76.18;;;;;;;-144.15;0.00;65763.66;10238138;28;20407;-70
2020/12/14 12:12:26;;;;;;;91.90;45.80;;;;;;;-144.15;0.00;65763.66;10237580;28;20061;-69
2020/12/14 12:17:24;;;;;;;114.38;63.03;;;;;;;-144.15;0.00;65763.66;10237913;28;20053;-68
2020/12/14 12:22:22;;;;;;;121.47;66.93;;;;;;;-144.15;0.00;65763.66;10237846;28;20084;-71
2020/12/14 12:27:20;;;;;;;190.73;108.95;;;;;;;-144.15;0.00;65763.66;10237889;28;20049;-71
2020/12/14 12:32:20;;;;;;;127.25;85.25;;;;;;;-144.15;0.00;65763.66;10236769;28;20057;-70
2020/12/14 12:37:17;;;;;;;129.57;67.25;;;;;;;-144.15;0.00;65763.66;10237033;28;20064;-70
2020/12/14 12:42:17;;;;;;;88.43;51.97;;;;;;;-144.15;0.00;65763.66;10237491;28;20405;-70
2020/12/14 12:47:16;;;;;;;108.15;63.70;;;;;;;-144.15;0.00;65763.66;10237018;28;20532;-71
2020/12/14 12:52:13;;;;;;;87.28;54.88;;;;;;;-144.15;0.00;65763.66;10236899;28;20077;-70
2020/12/14 12:57:11;;;;;;;69.85;48.38;;;;;;;-144.15;0.00;65763.66;10236521;28;20070;-71
2020/12/14 13:02:09;;;;;;;60.53;46.33;;;;;;;-144.15;0.00;65763.66;10235945;28;20073;-69
2020/12/14 13:07:15;;;;;;;49.03;37.08;;;;;;;-144.15;0.00;65763.66;10236509;28;20049;-71
2020/12/14 13:12:12;;;;;;;56.00;42.30;;;;;;;-144.15;0.00;65763.66;10234029;28;20549;-70
2020/12/14 13:17:10;;;;;;;121.82;78.05;;;;;;;-144.15;0.00;65763.66;10235613;28;20037;-71
2020/12/14 13:22:08;;;;;;;138.75;111.25;;;;;;;-144.15;0.00;65763.66;10236005;28;20077;-70
2020/12/14 13:27:07;;;;;;;146.38;101.50;;;;;;;-144.15;0.00;65763.66;10235989;28;20076;-70
2020/12/14 13:32:05;;;;;;;139.52;98.82;;;;;;;-144.15;0.00;65763.66;10235687;28;20407;-71
2020/12/14 13:37:03;;;;;;;85.70;64.75;;;;;;;-144.15;0.00;65763.66;10236021;28;20075;-70
2020/12/14 13:42:01;;;;;;;70.80;52.17;;;;;;;-144.15;0.00;65763.66;10235087;28;20076;-70
2020/12/14 13:47:01;;;;;;;45.65;32.85;;;;;;;-144.15;0.00;65763.66;10242467;28;20045;-69
2020/12/14 13:52:00;;;;;;;47.22;35.03;;;;;;;-144.15;0.00;65763.66;10243273;28;20073;-70
2020/12/14 13:56:58;;;;;;;44.28;29.80;;;;;;;-144.15;0.00;65763.66;10243543;28;20073;-69
2020/12/14 14:01:56;;;;;;;51.30;36.83;;;;;;;-144.15;0.00;65763.66;10243315;28;20077;-71
2020/12/14 14:06:55;;;;;;;78.88;42.75;;;;;;;-144.15;0.00;65763.66;10242933;28;20049;-70
2020/12/14 14:11:52;;;;;;;116.18;36.85;;;;;;;-144.15;0.00;65763.66;10242171;28;20057;-70
2020/12/14 14:16:50;;;;;;;224.30;81.60;;;;;;;-144.15;0.00;65763.66;10242657;28;20056;-70
2020/12/14 14:21:51;;;;;;;237.15;94.90;;;;;;;-144.15;0.00;65763.66;10242073;28;20119;-69
2020/12/14 14:26:51;;;;;;;258.40;97.75;;;;;;;-144.15;0.00;65763.66;10242125;28;20046;-69
2020/12/14 14:31:50;;;;;;;525.58;226.20;;;;;;;-144.15;0.00;65763.66;10241856;28;20550;-69
2020/12/14 14:36:52;;;;;;;81.13;39.47;;;;;;;-144.15;0.00;65763.66;10241626;28;20073;-69
2020/12/14 14:41:51;;;;;;;423.85;171.77;;;;;;;-144.15;0.00;65763.66;10241333;28;20100;-70
2020/12/14 14:46:50;;;;;;;250.45;100.00;;;;;;;-144.15;0.00;65763.66;10241365;28;20085;-71
2020/12/14 14:51:50;;;;;;;315.40;124.18;;;;;;;-144.15;0.00;65763.66;10241676;28;20049;-72
2020/12/14 14:56:48;;;;;;;168.30;89.03;;;;;;;-144.15;0.00;65763.66;10240598;28;20077;-70
2020/12/14 15:01:47;;;;;;;93.22;56.65;;;;;;;-144.15;0.00;65763.66;10240614;28;20072;-73
2020/12/14 15:06:45;;;;;;;260.63;131.18;;;;;;;-144.15;0.00;65763.66;10240494;28;20072;-72
2020/12/14 15:11:43;;;;;;;170.68;108.05;;;;;;;-144.15;0.00;65763.66;10239780;28;20058;-72
2020/12/14 15:16:43;;;;;;;88.38;62.13;;;;;;;-144.15;0.00;65763.66;10240716;28;20056;-73
2020/12/14 15:21:42;;;;;;;273.52;166.45;;;;;;;-144.15;0.00;65763.66;10240423;28;20087;-73
2020/12/14 15:26:39;;;;;;;131.02;89.82;;;;;;;-144.15;0.00;65763.66;10239606;28;20073;-73
2020/12/14 15:31:37;;;;;;;120.95;84.10;;;;;;;-144.15;0.00;65763.66;10239902;28;20423;-73
2020/12/14 15:36:35;;;;;;;73.00;53.00;;;;;;;-144.15;0.00;65763.66;10238741;28;20045;-74
2020/12/14 15:41:34;;;;;;;68.82;48.28;;;;;;;-144.15;0.00;65763.66;10237820;28;20076;-74
2020/12/14 15:46:31;;;;;;;74.70;57.00;;;;;;;-144.15;0.00;65763.66;10238698;28;20076;-73
2020/12/14 15:51:29;;;;;;;94.50;71.25;;;;;;;-144.15;0.00;65763.66;10237870;28;20049;-73
2020/12/14 15:56:27;;;;;;;68.20;49.30;;;;;;;-144.15;0.00;65763.66;10237940;28;20045;-74
2020/12/14 16:01:34;;;;;;;109.10;75.75;;;;;;;-144.15;0.00;65763.66;10238866;28;20612;-72
2020/12/14 16:06:32;;;;;;;70.15;52.85;;;;;;;-144.15;0.00;65763.66;10236971;28;20087;-71
2020/12/14 16:11:30;;;;;;;60.42;43.88;;;;;;;-144.15;0.00;65763.66;10237174;28;20477;-72
2020/12/14 16:16:29;;;;;;;70.68;53.00;;;;;;;-144.15;0.00;65763.66;10237483;28;20053;-71
2020/12/14 16:21:26;;;;;;;56.63;42.33;;;;;;;-144.15;0.00;65763.66;10237041;28;20077;-71
2020/12/14 16:26:25;;;;;;;58.25;45.33;;;;;;;-144.15;0.00;65763.66;10237272;28;20491;-72
2020/12/14 16:31:22;;;;;;;62.53;48.67;;;;;;;-144.15;0.00;65763.66;10237179;28;20041;-71
2020/12/14 16:36:21;;;;;;;80.53;60.08;;;;;;;-144.15;0.00;65763.66;10236985;28;20056;-70
2020/12/14 16:41:19;;;;;;;84.05;57.70;;;;;;;-144.15;0.00;65763.66;10236037;28;20073;-71
2020/12/14 16:46:17;;;;;;;77.35;54.30;;;;;;;-144.15;0.00;65763.66;10235745;28;20172;-72
2020/12/14 16:51:15;;;;;;;87.10;59.38;;;;;;;-144.15;0.00;65763.66;10228016;28;20120;-70
2020/12/14 16:56:13;;;;;;;93.47;59.67;;;;;;;-144.15;0.00;65763.66;10231390;28;20510;-71
2020/12/14 17:01:13;;;;;;;63.67;46.10;;;;;;;-144.15;0.00;65763.66;10234769;28;20568;-71
2020/12/14 17:06:14;;;;;;;54.08;41.25;;;;;;;-144.15;0.00;65763.66;10234570;28;20076;-72
2020/12/14 17:11:13;;;;;;;81.55;63.85;;;;;;;-144.15;0.00;65763.66;10221498;28;20093;-71
2020/12/14 17:16:11;;;;;;;67.03;48.85;;;;;;;-144.15;0.00;65763.66;10235665;28;20060;-72
2020/12/14 17:21:09;;;;;;;65.05;41.55;;;;;;;-144.15;0.00;65763.66;10235211;28;20076;-71
2020/12/14 17:26:07;;;;;;;41.03;30.63;;;;;;;-144.15;0.00;65763.66;10235141;28;20072;-71
2020/12/14 17:31:05;;;;;;;48.05;36.05;;;;;;;-144.15;0.00;65763.66;10233900;28;20491;-70
2020/12/14 17:36:07;;;;;;;48.00;34.53;;;;;;;-144.15;0.00;65763.66;10234886;28;20503;-71
2020/12/14 17:41:07;;;;;;;37.50;29.23;;;;;;;-144.15;0.00;65763.66;10234911;28;20073;-71
2020/12/14 17:46:06;;;;;;;55.55;43.08;;;;;;;-144.15;0.00;65763.66;10228979;28;20462;-70
2020/12/14 17:51:04;;;;;;;59.38;44.72;;;;;;;-144.15;0.00;65763.66;10233146;28;20077;-70
2020/12/14 17:56:01;;;;;;;78.20;54.13;;;;;;;-144.15;0.00;65763.66;10233812;28;20050;-71
2020/12/14 18:01:00;;;;;;;100.28;66.75;;;;;;;-144.15;0.00;65763.66;10235255;28;20076;-71
2020/12/14 18:06:00;;;;;;;110.47;76.72;;;;;;;-144.15;0.00;65763.66;10239580;28;20410;-70
2020/12/14 18:10:57;;;;;;;79.97;56.78;;;;;;;-144.15;0.00;65763.66;10234026;28;20076;-70
2020/12/14 18:15:55;;;;;;;44.90;34.25;;;;;;;-144.15;0.00;65763.66;10234816;28;20045;-71
2020/12/14 18:20:55;;;;;;;53.13;40.30;;;;;;;-144.15;0.00;65763.66;10234171;28;20499;-70
2020/12/14 18:25:54;;;;;;;68.55;46.55;;;;;;;-144.15;0.00;65763.66;10234565;28;20045;-71
2020/12/14 18:30:56;;;;;;;65.00;39.95;;;;;;;-144.15;0.00;65763.66;10237195;28;20077;-71
2020/12/14 21:26:27;;;;;;;22.50;17.73;;;;;;;-144.15;0.00;65763.66;10232662;28;20076;-72
2020/12/14 21:31:25;;;;;;;34.25;23.48;;;;;;;-144.15;0.00;65763.66;10234527;28;20049;-70
2020/12/14 21:36:25;;;;;;;27.88;21.13;;;;;;;-144.15;0.00;65763.66;10235138;28;20080;-72
2020/12/14 21:41:24;;;;;;;26.73;17.60;;;;;;;-144.15;0.00;65763.66;10235492;28;20077;-72
2020/12/14 21:46:22;;;;;;;26.45;17.25;;;;;;;-144.15;0.00;65763.66;10235857;28;20050;-71
2020/12/14 21:51:20;;;;;;;32.80;24.40;;;;;;;-144.15;0.00;65763.66;10234783;28;20045;-72
2020/12/14 21:56:19;;;;;;;31.63;22.65;;;;;;;-144.15;0.00;65763.66;10234812;28;20073;-71
2020/12/14 22:01:20;;;;;;;39.80;26.63;;;;;;;-144.15;0.00;65763.66;10234861;28;20080;-72
2020/12/14 22:06:20;;;;;;;40.63;24.42;;;;;;;-144.15;0.00;65763.66;10238792;28;20048;-70
2020/12/14 22:11:22;;;;;;;50.30;29.25;;;;;;;-144.15;0.00;65763.66;10242308;28;20091;-72
2020/12/14 22:16:21;;;;;;;37.00;25.52;;;;;;;-144.15;0.00;65763.66;10242302;28;20075;-71
2020/12/14 22:21:19;;;;;;;61.53;41.53;;;;;;;-144.15;0.00;65763.66;10242717;28;20096;-71
2020/12/14 22:26:19;;;;;;;26.60;19.30;;;;;;;-144.15;0.00;65763.66;10242195;28;20084;-71
2020/12/14 22:31:19;;;;;;;23.67;17.42;;;;;;;-144.15;0.00;65763.66;10242263;28;20502;-72
2020/12/14 22:36:17;;;;;;;24.67;19.00;;;;;;;-144.15;0.00;65763.66;10242287;28;20052;-71
2020/12/14 22:41:15;;;;;;;23.45;17.25;;;;;;;-144.15;0.00;65763.66;10241674;28;20518;-71
2020/12/14 22:46:14;;;;;;;21.67;16.45;;;;;;;-144.15;0.00;65763.66;10243543;28;20062;-72
2020/12/14 22:51:15;;;;;;;35.63;21.80;;;;;;;-144.15;0.00;65763.66;10241585;28;20038;-72
2020/12/14 22:56:15;;;;;;;23.88;18.52;;;;;;;-144.15;0.00;65763.66;10241846;28;20085;-71
2020/12/14 23:01:13;;;;;;;23.30;17.70;;;;;;;-144.15;0.00;65763.66;10240781;28;20053;-71
2020/12/14 23:06:11;;;;;;;23.80;17.13;;;;;;;-144.15;0.00;65763.66;10240566;28;20426;-71
2020/12/14 23:11:10;;;;;;;19.83;16.27;;;;;;;-144.15;0.00;65763.66;10240749;28;20056;-70
2020/12/14 23:16:09;;;;;;;24.80;16.20;;;;;;;-144.15;0.00;65763.66;10239937;28;20045;-71
2020/12/14 23:21:08;;;;;;;20.98;15.40;;;;;;;-144.15;0.00;65763.66;10240924;28;20052;-71
2020/12/14 23:26:05;;;;;;;21.65;15.80;;;;;;;-144.15;0.00;65763.66;10239826;28;20041;-72
2020/12/14 23:31:03;;;;;;;21.20;15.20;;;;;;;-144.15;0.00;65763.66;10238696;28;20057;-71
2020/12/14 23:36:01;;;;;;;22.27;16.67;;;;;;;-144.15;0.00;65763.66;10239545;28;20045;-72
2020/12/14 23:41:00;;;;;;;22.92;15.80;;;;;;;-144.15;0.00;65763.66;10239194;28;20533;-71
2020/12/14 23:45:58;;;;;;;23.73;17.38;;;;;;;-144.15;0.00;65763.66;10238968;28;20088;-71
2020/12/14 23:50:56;;;;;;;22.90;15.98;;;;;;;-144.15;0.00;65763.66;10238886;28;21454;-71
2020/12/14 23:55:53;;;;;;;22.33;15.45;;;;;;;-144.15;0.00;65763.66;10238496;28;20107;-71
